sensor_id;sensor_type;location;lat;lon;timestamp;P1;durP1;ratioP1;P2;durP2;ratioP2
74042;SDS011;62384;53.600;10.040;2023-09-18T00:00:07;7.47;;;4.20;;
74042;SDS011;62384;53.600;10.040;2023-09-18T00:02:40;6.22;;;3.88;;
74042;SDS011;62384;53.600;10.040;2023-09-18T00:05:08;6.78;;;3.92;;
74042;SDS011;62384;53.600;10.040;2023-09-18T00:07:34;6.35;;;4.25;;
74042;SDS011;62384;53.600;10.040;2023-09-18T00:09:59;7.20;;;4.50;;
74042;SDS011;62384;53.600;10.040;2023-09-18T00:12:24;6.53;;;4.13;;
74042;SDS011;62384;53.600;10.040;2023-09-18T00:14:49;8.05;;;4.00;;
74042;SDS011;62384;53.600;10.040;2023-09-18T00:17:18;6.60;;;4.60;;
74042;SDS011;62384;53.600;10.040;2023-09-18T00:19:44;8.52;;;4.43;;
74042;SDS011;62384;53.600;10.040;2023-09-18T00:22:18;8.00;;;4.55;;
74042;SDS011;62384;53.600;10.040;2023-09-18T00:24:43;5.72;;;3.85;;
74042;SDS011;62384;53.600;10.040;2023-09-18T00:27:09;8.73;;;4.57;;
74042;SDS011;62384;53.600;10.040;2023-09-18T00:29:36;6.00;;;4.10;;
74042;SDS011;62384;53.600;10.040;2023-09-18T00:32:01;5.38;;;3.88;;
74042;SDS011;62384;53.600;10.040;2023-09-18T00:34:26;8.50;;;3.85;;
74042;SDS011;62384;53.600;10.040;2023-09-18T00:36:51;5.85;;;3.78;;
74042;SDS011;62384;53.600;10.040;2023-09-18T00:39:17;6.80;;;3.85;;
74042;SDS011;62384;53.600;10.040;2023-09-18T00:41:42;10.85;;;4.72;;
74042;SDS011;62384;53.600;10.040;2023-09-18T00:44:08;7.35;;;4.15;;
74042;SDS011;62384;53.600;10.040;2023-09-18T00:46:34;8.35;;;3.67;;
74042;SDS011;62384;53.600;10.040;2023-09-18T00:49:00;8.48;;;4.55;;
74042;SDS011;62384;53.600;10.040;2023-09-18T00:51:26;6.13;;;3.90;;
74042;SDS011;62384;53.600;10.040;2023-09-18T00:53:51;6.40;;;4.05;;
74042;SDS011;62384;53.600;10.040;2023-09-18T00:56:16;6.22;;;3.80;;
74042;SDS011;62384;53.600;10.040;2023-09-18T00:58:45;6.78;;;4.35;;
74042;SDS011;62384;53.600;10.040;2023-09-18T01:01:19;7.70;;;4.07;;
74042;SDS011;62384;53.600;10.040;2023-09-18T01:03:51;8.13;;;3.95;;
74042;SDS011;62384;53.600;10.040;2023-09-18T01:06:18;5.90;;;3.50;;
74042;SDS011;62384;53.600;10.040;2023-09-18T01:08:44;8.05;;;4.10;;
74042;SDS011;62384;53.600;10.040;2023-09-18T01:11:14;6.00;;;3.90;;
74042;SDS011;62384;53.600;10.040;2023-09-18T01:13:51;6.00;;;4.03;;
74042;SDS011;62384;53.600;10.040;2023-09-18T01:16:27;6.82;;;4.07;;
74042;SDS011;62384;53.600;10.040;2023-09-18T01:18:59;5.40;;;4.00;;
74042;SDS011;62384;53.600;10.040;2023-09-18T01:21:27;6.93;;;4.28;;
74042;SDS011;62384;53.600;10.040;2023-09-18T01:23:53;7.13;;;4.07;;
74042;SDS011;62384;53.600;10.040;2023-09-18T01:29:47;9.15;;;4.13;;
74042;SDS011;62384;53.600;10.040;2023-09-18T01:32:17;8.30;;;4.43;;
74042;SDS011;62384;53.600;10.040;2023-09-18T01:34:49;5.47;;;3.95;;
74042;SDS011;62384;53.600;10.040;2023-09-18T01:37:27;9.23;;;4.60;;
74042;SDS011;62384;53.600;10.040;2023-09-18T01:40:02;5.55;;;4.25;;
74042;SDS011;62384;53.600;10.040;2023-09-18T01:42:50;6.03;;;3.72;;
74042;SDS011;62384;53.600;10.040;2023-09-18T01:45:15;6.70;;;3.90;;
74042;SDS011;62384;53.600;10.040;2023-09-18T01:47:47;5.38;;;3.70;;
74042;SDS011;62384;53.600;10.040;2023-09-18T01:50:12;6.35;;;3.58;;
74042;SDS011;62384;53.600;10.040;2023-09-18T01:52:38;7.53;;;4.40;;
74042;SDS011;62384;53.600;10.040;2023-09-18T01:55:03;10.10;;;4.53;;
74042;SDS011;62384;53.600;10.040;2023-09-18T01:57:38;9.90;;;4.40;;
74042;SDS011;62384;53.600;10.040;2023-09-18T02:00:06;7.28;;;4.07;;
74042;SDS011;62384;53.600;10.040;2023-09-18T02:02:34;5.72;;;4.20;;
74042;SDS011;62384;53.600;10.040;2023-09-18T02:05:08;8.63;;;4.45;;
74042;SDS011;62384;53.600;10.040;2023-09-18T02:07:33;8.68;;;4.13;;
74042;SDS011;62384;53.600;10.040;2023-09-18T02:12:39;7.18;;;4.13;;
74042;SDS011;62384;53.600;10.040;2023-09-18T02:15:05;5.90;;;4.05;;
74042;SDS011;62384;53.600;10.040;2023-09-18T02:17:31;6.40;;;4.32;;
74042;SDS011;62384;53.600;10.040;2023-09-18T02:20:02;7.32;;;4.25;;
74042;SDS011;62384;53.600;10.040;2023-09-18T02:22:33;6.88;;;4.07;;
74042;SDS011;62384;53.600;10.040;2023-09-18T02:25:01;6.53;;;4.13;;
74042;SDS011;62384;53.600;10.040;2023-09-18T02:27:29;9.00;;;4.47;;
74042;SDS011;62384;53.600;10.040;2023-09-18T02:29:57;10.93;;;4.40;;
74042;SDS011;62384;53.600;10.040;2023-09-18T02:32:22;6.68;;;4.22;;
74042;SDS011;62384;53.600;10.040;2023-09-18T02:34:48;6.65;;;4.68;;
74042;SDS011;62384;53.600;10.040;2023-09-18T02:37:13;9.45;;;4.63;;
74042;SDS011;62384;53.600;10.040;2023-09-18T02:39:38;6.90;;;4.70;;
74042;SDS011;62384;53.600;10.040;2023-09-18T02:42:07;7.32;;;4.10;;
74042;SDS011;62384;53.600;10.040;2023-09-18T02:44:32;7.40;;;4.50;;
74042;SDS011;62384;53.600;10.040;2023-09-18T02:46:57;10.50;;;4.50;;
74042;SDS011;62384;53.600;10.040;2023-09-18T02:49:23;10.95;;;4.78;;
74042;SDS011;62384;53.600;10.040;2023-09-18T02:51:48;6.78;;;4.45;;
74042;SDS011;62384;53.600;10.040;2023-09-18T02:54:16;9.57;;;5.03;;
74042;SDS011;62384;53.600;10.040;2023-09-18T02:56:41;6.05;;;4.45;;
74042;SDS011;62384;53.600;10.040;2023-09-18T02:59:06;9.75;;;4.57;;
74042;SDS011;62384;53.600;10.040;2023-09-18T03:01:32;6.53;;;4.60;;
74042;SDS011;62384;53.600;10.040;2023-09-18T03:03:57;10.82;;;4.93;;
74042;SDS011;62384;53.600;10.040;2023-09-18T03:06:22;8.05;;;4.28;;
74042;SDS011;62384;53.600;10.040;2023-09-18T03:11:33;7.47;;;4.78;;
74042;SDS011;62384;53.600;10.040;2023-09-18T03:14:01;5.63;;;4.22;;
74042;SDS011;62384;53.600;10.040;2023-09-18T03:16:27;7.45;;;4.85;;
74042;SDS011;62384;53.600;10.040;2023-09-18T03:18:53;7.05;;;4.32;;
74042;SDS011;62384;53.600;10.040;2023-09-18T03:24:10;8.18;;;4.93;;
74042;SDS011;62384;53.600;10.040;2023-09-18T03:26:39;6.93;;;4.55;;
74042;SDS011;62384;53.600;10.040;2023-09-18T03:29:04;8.65;;;4.78;;
74042;SDS011;62384;53.600;10.040;2023-09-18T03:31:29;9.15;;;4.60;;
74042;SDS011;62384;53.600;10.040;2023-09-18T03:33:55;9.10;;;5.07;;
74042;SDS011;62384;53.600;10.040;2023-09-18T03:36:23;7.60;;;4.70;;
74042;SDS011;62384;53.600;10.040;2023-09-18T03:38:48;7.45;;;5.03;;
74042;SDS011;62384;53.600;10.040;2023-09-18T03:41:14;7.22;;;4.80;;
74042;SDS011;62384;53.600;10.040;2023-09-18T03:43:42;7.38;;;4.90;;
74042;SDS011;62384;53.600;10.040;2023-09-18T03:46:10;5.95;;;4.45;;
74042;SDS011;62384;53.600;10.040;2023-09-18T03:48:38;8.82;;;5.05;;
74042;SDS011;62384;53.600;10.040;2023-09-18T03:51:11;7.25;;;4.43;;
74042;SDS011;62384;53.600;10.040;2023-09-18T03:53:42;8.13;;;4.88;;
74042;SDS011;62384;53.600;10.040;2023-09-18T03:56:07;7.78;;;4.78;;
74042;SDS011;62384;53.600;10.040;2023-09-18T03:58:32;7.57;;;4.78;;
74042;SDS011;62384;53.600;10.040;2023-09-18T04:00:58;10.38;;;5.45;;
74042;SDS011;62384;53.600;10.040;2023-09-18T04:03:26;6.88;;;4.38;;
74042;SDS011;62384;53.600;10.040;2023-09-18T04:05:51;7.63;;;4.80;;
74042;SDS011;62384;53.600;10.040;2023-09-18T04:08:16;7.47;;;5.07;;
74042;SDS011;62384;53.600;10.040;2023-09-18T04:10:41;9.30;;;4.78;;
74042;SDS011;62384;53.600;10.040;2023-09-18T04:13:10;9.02;;;4.70;;
74042;SDS011;62384;53.600;10.040;2023-09-18T04:15:39;7.93;;;5.18;;
74042;SDS011;62384;53.600;10.040;2023-09-18T04:18:04;10.63;;;5.07;;
74042;SDS011;62384;53.600;10.040;2023-09-18T04:20:33;9.27;;;5.50;;
74042;SDS011;62384;53.600;10.040;2023-09-18T04:25:50;7.22;;;4.85;;
74042;SDS011;62384;53.600;10.040;2023-09-18T04:28:19;8.75;;;5.32;;
74042;SDS011;62384;53.600;10.040;2023-09-18T04:30:46;9.23;;;4.55;;
74042;SDS011;62384;53.600;10.040;2023-09-18T04:33:15;7.22;;;4.82;;
74042;SDS011;62384;53.600;10.040;2023-09-18T04:35:42;8.45;;;4.85;;
74042;SDS011;62384;53.600;10.040;2023-09-18T04:38:16;9.50;;;5.72;;
74042;SDS011;62384;53.600;10.040;2023-09-18T04:40:41;7.10;;;4.72;;
74042;SDS011;62384;53.600;10.040;2023-09-18T04:43:07;6.72;;;4.70;;
74042;SDS011;62384;53.600;10.040;2023-09-18T04:45:32;7.13;;;4.75;;
74042;SDS011;62384;53.600;10.040;2023-09-18T04:47:57;9.55;;;5.25;;
74042;SDS011;62384;53.600;10.040;2023-09-18T04:50:23;8.75;;;5.32;;
74042;SDS011;62384;53.600;10.040;2023-09-18T04:52:48;8.25;;;5.80;;
74042;SDS011;62384;53.600;10.040;2023-09-18T04:55:16;7.95;;;5.13;;
74042;SDS011;62384;53.600;10.040;2023-09-18T04:57:41;8.18;;;5.03;;
74042;SDS011;62384;53.600;10.040;2023-09-18T05:00:06;9.82;;;5.20;;
74042;SDS011;62384;53.600;10.040;2023-09-18T05:02:38;10.50;;;5.32;;
74042;SDS011;62384;53.600;10.040;2023-09-18T05:05:04;7.45;;;4.88;;
74042;SDS011;62384;53.600;10.040;2023-09-18T05:07:35;7.68;;;5.07;;
74042;SDS011;62384;53.600;10.040;2023-09-18T05:10:00;9.75;;;5.40;;
74042;SDS011;62384;53.600;10.040;2023-09-18T05:12:26;9.05;;;5.13;;
74042;SDS011;62384;53.600;10.040;2023-09-18T05:14:51;8.93;;;5.30;;
74042;SDS011;62384;53.600;10.040;2023-09-18T05:17:17;8.40;;;5.40;;
74042;SDS011;62384;53.600;10.040;2023-09-18T05:19:43;7.88;;;4.93;;
74042;SDS011;62384;53.600;10.040;2023-09-18T05:22:11;7.57;;;5.00;;
74042;SDS011;62384;53.600;10.040;2023-09-18T05:24:40;8.00;;;5.65;;
74042;SDS011;62384;53.600;10.040;2023-09-18T05:27:05;7.72;;;4.78;;
74042;SDS011;62384;53.600;10.040;2023-09-18T05:29:42;9.77;;;6.00;;
74042;SDS011;62384;53.600;10.040;2023-09-18T05:32:08;8.70;;;5.15;;
74042;SDS011;62384;53.600;10.040;2023-09-18T05:34:33;9.38;;;6.03;;
74042;SDS011;62384;53.600;10.040;2023-09-18T05:37:00;11.48;;;5.45;;
74042;SDS011;62384;53.600;10.040;2023-09-18T05:39:25;7.50;;;4.70;;
74042;SDS011;62384;53.600;10.040;2023-09-18T05:41:50;9.05;;;5.63;;
74042;SDS011;62384;53.600;10.040;2023-09-18T05:44:24;8.68;;;5.10;;
74042;SDS011;62384;53.600;10.040;2023-09-18T05:46:50;7.93;;;5.28;;
74042;SDS011;62384;53.600;10.040;2023-09-18T05:49:15;9.45;;;5.35;;
74042;SDS011;62384;53.600;10.040;2023-09-18T05:51:43;6.57;;;4.78;;
74042;SDS011;62384;53.600;10.040;2023-09-18T05:54:09;12.10;;;5.50;;
74042;SDS011;62384;53.600;10.040;2023-09-18T05:56:34;7.93;;;5.40;;
74042;SDS011;62384;53.600;10.040;2023-09-18T05:58:59;7.88;;;5.47;;
74042;SDS011;62384;53.600;10.040;2023-09-18T06:01:25;9.32;;;5.15;;
74042;SDS011;62384;53.600;10.040;2023-09-18T06:03:50;13.65;;;5.35;;
74042;SDS011;62384;53.600;10.040;2023-09-18T06:06:20;8.55;;;5.25;;
74042;SDS011;62384;53.600;10.040;2023-09-18T06:08:45;12.15;;;5.72;;
74042;SDS011;62384;53.600;10.040;2023-09-18T06:11:11;8.45;;;4.65;;
74042;SDS011;62384;53.600;10.040;2023-09-18T06:13:36;8.38;;;5.18;;
74042;SDS011;62384;53.600;10.040;2023-09-18T06:16:02;8.50;;;4.95;;
74042;SDS011;62384;53.600;10.040;2023-09-18T06:18:39;9.77;;;4.63;;
74042;SDS011;62384;53.600;10.040;2023-09-18T06:21:04;8.48;;;4.85;;
74042;SDS011;62384;53.600;10.040;2023-09-18T06:23:30;8.48;;;5.00;;
74042;SDS011;62384;53.600;10.040;2023-09-18T06:25:55;9.07;;;5.10;;
74042;SDS011;62384;53.600;10.040;2023-09-18T06:28:21;9.85;;;5.22;;
74042;SDS011;62384;53.600;10.040;2023-09-18T06:30:47;6.90;;;4.75;;
74042;SDS011;62384;53.600;10.040;2023-09-18T06:33:13;6.82;;;4.57;;
74042;SDS011;62384;53.600;10.040;2023-09-18T06:35:38;6.70;;;4.90;;
74042;SDS011;62384;53.600;10.040;2023-09-18T06:38:10;12.73;;;5.10;;
74042;SDS011;62384;53.600;10.040;2023-09-18T06:40:37;9.35;;;5.40;;
74042;SDS011;62384;53.600;10.040;2023-09-18T06:43:09;10.10;;;5.25;;
74042;SDS011;62384;53.600;10.040;2023-09-18T06:45:34;6.72;;;4.55;;
74042;SDS011;62384;53.600;10.040;2023-09-18T06:48:02;10.25;;;4.70;;
74042;SDS011;62384;53.600;10.040;2023-09-18T06:50:31;9.57;;;4.88;;
74042;SDS011;62384;53.600;10.040;2023-09-18T06:52:57;10.18;;;4.80;;
74042;SDS011;62384;53.600;10.040;2023-09-18T06:55:23;10.50;;;5.07;;
74042;SDS011;62384;53.600;10.040;2023-09-18T06:57:48;8.55;;;4.65;;
74042;SDS011;62384;53.600;10.040;2023-09-18T07:00:16;8.45;;;4.95;;
74042;SDS011;62384;53.600;10.040;2023-09-18T07:02:45;11.75;;;5.25;;
74042;SDS011;62384;53.600;10.040;2023-09-18T07:05:10;6.65;;;4.53;;
74042;SDS011;62384;53.600;10.040;2023-09-18T07:07:36;9.13;;;5.03;;
74042;SDS011;62384;53.600;10.040;2023-09-18T07:10:01;6.78;;;5.00;;
74042;SDS011;62384;53.600;10.040;2023-09-18T07:12:27;10.25;;;5.10;;
74042;SDS011;62384;53.600;10.040;2023-09-18T07:14:56;7.95;;;4.88;;
74042;SDS011;62384;53.600;10.040;2023-09-18T07:17:21;10.20;;;4.25;;
74042;SDS011;62384;53.600;10.040;2023-09-18T07:19:47;10.20;;;5.05;;
74042;SDS011;62384;53.600;10.040;2023-09-18T07:22:12;10.43;;;4.43;;
74042;SDS011;62384;53.600;10.040;2023-09-18T07:24:37;11.25;;;5.00;;
74042;SDS011;62384;53.600;10.040;2023-09-18T07:27:05;10.27;;;5.28;;
74042;SDS011;62384;53.600;10.040;2023-09-18T07:29:31;11.02;;;4.90;;
74042;SDS011;62384;53.600;10.040;2023-09-18T07:31:56;6.55;;;4.13;;
74042;SDS011;62384;53.600;10.040;2023-09-18T07:34:21;8.50;;;4.63;;
74042;SDS011;62384;53.600;10.040;2023-09-18T07:36:49;9.05;;;4.82;;
74042;SDS011;62384;53.600;10.040;2023-09-18T07:39:19;7.22;;;3.97;;
74042;SDS011;62384;53.600;10.040;2023-09-18T07:41:44;7.93;;;4.20;;
74042;SDS011;62384;53.600;10.040;2023-09-18T07:44:09;7.57;;;4.45;;
74042;SDS011;62384;53.600;10.040;2023-09-18T07:46:38;7.65;;;4.70;;
74042;SDS011;62384;53.600;10.040;2023-09-18T07:49:03;8.88;;;4.30;;
74042;SDS011;62384;53.600;10.040;2023-09-18T07:51:28;4.93;;;3.70;;
74042;SDS011;62384;53.600;10.040;2023-09-18T07:53:55;6.25;;;3.78;;
74042;SDS011;62384;53.600;10.040;2023-09-18T07:56:20;8.82;;;5.10;;
74042;SDS011;62384;53.600;10.040;2023-09-18T07:58:47;7.38;;;4.28;;
74042;SDS011;62384;53.600;10.040;2023-09-18T08:01:13;6.55;;;4.10;;
74042;SDS011;62384;53.600;10.040;2023-09-18T08:03:39;7.07;;;4.10;;
74042;SDS011;62384;53.600;10.040;2023-09-18T08:06:07;7.15;;;4.22;;
74042;SDS011;62384;53.600;10.040;2023-09-18T08:08:35;6.97;;;4.22;;
74042;SDS011;62384;53.600;10.040;2023-09-18T08:11:06;7.53;;;4.30;;
74042;SDS011;62384;53.600;10.040;2023-09-18T08:13:36;6.88;;;4.57;;
74042;SDS011;62384;53.600;10.040;2023-09-18T08:16:06;6.18;;;3.92;;
74042;SDS011;62384;53.600;10.040;2023-09-18T08:18:32;6.15;;;4.25;;
74042;SDS011;62384;53.600;10.040;2023-09-18T08:20:57;6.50;;;3.80;;
74042;SDS011;62384;53.600;10.040;2023-09-18T08:23:24;5.18;;;3.42;;
74042;SDS011;62384;53.600;10.040;2023-09-18T08:25:49;4.75;;;3.63;;
74042;SDS011;62384;53.600;10.040;2023-09-18T08:28:17;5.18;;;4.10;;
74042;SDS011;62384;53.600;10.040;2023-09-18T08:30:42;7.78;;;3.75;;
74042;SDS011;62384;53.600;10.040;2023-09-18T08:33:12;6.35;;;3.85;;
74042;SDS011;62384;53.600;10.040;2023-09-18T08:35:46;5.57;;;3.88;;
74042;SDS011;62384;53.600;10.040;2023-09-18T08:38:11;7.38;;;3.70;;
74042;SDS011;62384;53.600;10.040;2023-09-18T08:40:39;5.45;;;4.05;;
74042;SDS011;62384;53.600;10.040;2023-09-18T08:43:05;6.88;;;3.85;;
74042;SDS011;62384;53.600;10.040;2023-09-18T08:45:35;7.03;;;4.55;;
74042;SDS011;62384;53.600;10.040;2023-09-18T08:48:06;9.55;;;4.68;;
74042;SDS011;62384;53.600;10.040;2023-09-18T08:50:31;7.57;;;4.47;;
74042;SDS011;62384;53.600;10.040;2023-09-18T08:53:05;8.00;;;4.55;;
74042;SDS011;62384;53.600;10.040;2023-09-18T08:55:30;5.90;;;3.90;;
74042;SDS011;62384;53.600;10.040;2023-09-18T08:57:57;7.25;;;4.28;;
74042;SDS011;62384;53.600;10.040;2023-09-18T09:00:27;6.38;;;3.75;;
74042;SDS011;62384;53.600;10.040;2023-09-18T09:02:52;7.40;;;4.90;;
74042;SDS011;62384;53.600;10.040;2023-09-18T09:05:24;8.48;;;3.97;;
74042;SDS011;62384;53.600;10.040;2023-09-18T09:07:52;9.82;;;4.43;;
74042;SDS011;62384;53.600;10.040;2023-09-18T09:10:18;7.03;;;3.92;;
74042;SDS011;62384;53.600;10.040;2023-09-18T09:12:58;13.65;;;6.15;;
74042;SDS011;62384;53.600;10.040;2023-09-18T09:15:27;8.02;;;4.20;;
74042;SDS011;62384;53.600;10.040;2023-09-18T09:18:03;8.83;;;4.17;;
74042;SDS011;62384;53.600;10.040;2023-09-18T09:20:34;6.68;;;4.40;;
74042;SDS011;62384;53.600;10.040;2023-09-18T09:23:01;6.13;;;3.65;;
74042;SDS011;62384;53.600;10.040;2023-09-18T09:25:30;6.00;;;4.22;;
74042;SDS011;62384;53.600;10.040;2023-09-18T09:28:00;7.63;;;3.97;;
74042;SDS011;62384;53.600;10.040;2023-09-18T09:30:29;9.98;;;3.90;;
74042;SDS011;62384;53.600;10.040;2023-09-18T09:32:58;8.00;;;3.72;;
74042;SDS011;62384;53.600;10.040;2023-09-18T09:35:31;5.05;;;3.85;;
74042;SDS011;62384;53.600;10.040;2023-09-18T09:38:08;6.75;;;3.78;;
74042;SDS011;62384;53.600;10.040;2023-09-18T09:40:39;6.88;;;3.70;;
74042;SDS011;62384;53.600;10.040;2023-09-18T09:43:07;6.10;;;3.67;;
74042;SDS011;62384;53.600;10.040;2023-09-18T09:45:36;6.22;;;4.15;;
74042;SDS011;62384;53.600;10.040;2023-09-18T09:48:02;5.65;;;3.38;;
74042;SDS011;62384;53.600;10.040;2023-09-18T09:50:32;5.55;;;3.60;;
74042;SDS011;62384;53.600;10.040;2023-09-18T09:52:58;5.13;;;3.30;;
74042;SDS011;62384;53.600;10.040;2023-09-18T09:55:32;5.45;;;3.70;;
74042;SDS011;62384;53.600;10.040;2023-09-18T09:58:06;5.00;;;3.10;;
74042;SDS011;62384;53.600;10.040;2023-09-18T10:00:56;6.78;;;3.67;;
74042;SDS011;62384;53.600;10.040;2023-09-18T10:03:26;7.05;;;3.17;;
74042;SDS011;62384;53.600;10.040;2023-09-18T10:05:54;6.10;;;3.58;;
74042;SDS011;62384;53.600;10.040;2023-09-18T10:08:23;5.75;;;3.55;;
74042;SDS011;62384;53.600;10.040;2023-09-18T10:10:53;7.18;;;3.33;;
74042;SDS011;62384;53.600;10.040;2023-09-18T10:13:23;6.00;;;3.47;;
74042;SDS011;62384;53.600;10.040;2023-09-18T10:15:57;9.20;;;3.97;;
74042;SDS011;62384;53.600;10.040;2023-09-18T10:21:06;6.38;;;3.20;;
74042;SDS011;62384;53.600;10.040;2023-09-18T10:23:38;6.18;;;3.92;;
74042;SDS011;62384;53.600;10.040;2023-09-18T10:26:21;6.05;;;3.38;;
74042;SDS011;62384;53.600;10.040;2023-09-18T10:28:54;5.50;;;2.97;;
74042;SDS011;62384;53.600;10.040;2023-09-18T10:31:23;6.85;;;3.38;;
74042;SDS011;62384;53.600;10.040;2023-09-18T10:33:50;6.30;;;3.38;;
74042;SDS011;62384;53.600;10.040;2023-09-18T10:36:18;4.85;;;3.10;;
74042;SDS011;62384;53.600;10.040;2023-09-18T10:38:45;8.70;;;3.53;;
74042;SDS011;62384;53.600;10.040;2023-09-18T10:41:21;8.07;;;2.88;;
74042;SDS011;62384;53.600;10.040;2023-09-18T10:43:54;10.13;;;3.17;;
74042;SDS011;62384;53.600;10.040;2023-09-18T10:46:22;6.45;;;3.28;;
74042;SDS011;62384;53.600;10.040;2023-09-18T10:48:49;6.97;;;2.85;;
74042;SDS011;62384;53.600;10.040;2023-09-18T10:51:24;5.30;;;3.22;;
74042;SDS011;62384;53.600;10.040;2023-09-18T10:53:56;5.85;;;2.97;;
74042;SDS011;62384;53.600;10.040;2023-09-18T10:56:21;9.63;;;3.60;;
74042;SDS011;62384;53.600;10.040;2023-09-18T10:58:48;6.93;;;2.97;;
74042;SDS011;62384;53.600;10.040;2023-09-18T11:01:24;5.60;;;2.80;;
74042;SDS011;62384;53.600;10.040;2023-09-18T11:03:52;6.78;;;2.75;;
74042;SDS011;62384;53.600;10.040;2023-09-18T11:06:17;8.70;;;3.70;;
74042;SDS011;62384;53.600;10.040;2023-09-18T11:08:49;6.75;;;2.50;;
74042;SDS011;62384;53.600;10.040;2023-09-18T11:11:17;5.30;;;2.92;;
74042;SDS011;62384;53.600;10.040;2023-09-18T11:13:48;8.43;;;3.20;;
74042;SDS011;62384;53.600;10.040;2023-09-18T11:16:32;6.13;;;2.80;;
74042;SDS011;62384;53.600;10.040;2023-09-18T11:19:13;6.65;;;2.97;;
74042;SDS011;62384;53.600;10.040;2023-09-18T11:21:47;7.35;;;3.25;;
74042;SDS011;62384;53.600;10.040;2023-09-18T11:26:46;7.88;;;2.67;;
74042;SDS011;62384;53.600;10.040;2023-09-18T11:29:16;8.10;;;3.10;;
74042;SDS011;62384;53.600;10.040;2023-09-18T11:31:50;5.28;;;2.70;;
74042;SDS011;62384;53.600;10.040;2023-09-18T11:36:57;5.70;;;2.75;;
74042;SDS011;62384;53.600;10.040;2023-09-18T11:42:25;6.07;;;2.70;;
74042;SDS011;62384;53.600;10.040;2023-09-18T11:44:53;6.05;;;2.50;;
74042;SDS011;62384;53.600;10.040;2023-09-18T11:47:22;3.88;;;2.30;;
74042;SDS011;62384;53.600;10.040;2023-09-18T11:49:55;11.23;;;2.78;;
74042;SDS011;62384;53.600;10.040;2023-09-18T11:52:26;12.32;;;3.22;;
74042;SDS011;62384;53.600;10.040;2023-09-18T11:54:58;8.60;;;2.78;;
74042;SDS011;62384;53.600;10.040;2023-09-18T11:57:24;10.02;;;2.55;;
74042;SDS011;62384;53.600;10.040;2023-09-18T11:59:52;5.63;;;2.88;;
74042;SDS011;62384;53.600;10.040;2023-09-18T12:02:25;11.27;;;2.50;;
74042;SDS011;62384;53.600;10.040;2023-09-18T12:05:04;8.60;;;3.35;;
74042;SDS011;62384;53.600;10.040;2023-09-18T12:07:31;5.63;;;2.90;;
74042;SDS011;62384;53.600;10.040;2023-09-18T12:09:56;7.85;;;2.45;;
74042;SDS011;62384;53.600;10.040;2023-09-18T12:12:22;7.72;;;2.78;;
74042;SDS011;62384;53.600;10.040;2023-09-18T12:14:51;11.18;;;3.10;;
74042;SDS011;62384;53.600;10.040;2023-09-18T12:17:17;6.05;;;2.60;;
74042;SDS011;62384;53.600;10.040;2023-09-18T12:19:50;7.13;;;2.35;;
74042;SDS011;62384;53.600;10.040;2023-09-18T12:22:31;5.32;;;2.00;;
74042;SDS011;62384;53.600;10.040;2023-09-18T12:27:43;8.80;;;2.08;;
74042;SDS011;62384;53.600;10.040;2023-09-18T12:30:09;4.97;;;2.15;;
74042;SDS011;62384;53.600;10.040;2023-09-18T12:32:36;4.05;;;2.38;;
74042;SDS011;62384;53.600;10.040;2023-09-18T12:35:04;5.25;;;2.25;;
74042;SDS011;62384;53.600;10.040;2023-09-18T12:37:32;8.63;;;2.42;;
74042;SDS011;62384;53.600;10.040;2023-09-18T12:39:59;6.28;;;1.85;;
74042;SDS011;62384;53.600;10.040;2023-09-18T12:42:27;6.38;;;2.45;;
74042;SDS011;62384;53.600;10.040;2023-09-18T12:44:53;7.65;;;2.67;;
74042;SDS011;62384;53.600;10.040;2023-09-18T12:47:19;3.88;;;2.10;;
74042;SDS011;62384;53.600;10.040;2023-09-18T12:49:47;5.85;;;2.13;;
74042;SDS011;62384;53.600;10.040;2023-09-18T12:52:13;5.85;;;2.00;;
74042;SDS011;62384;53.600;10.040;2023-09-18T12:54:46;3.67;;;1.85;;
74042;SDS011;62384;53.600;10.040;2023-09-18T12:57:19;4.72;;;1.85;;
74042;SDS011;62384;53.600;10.040;2023-09-18T12:59:44;3.83;;;1.90;;
74042;SDS011;62384;53.600;10.040;2023-09-18T13:02:12;11.88;;;3.35;;
74042;SDS011;62384;53.600;10.040;2023-09-18T13:04:41;8.02;;;2.10;;
74042;SDS011;62384;53.600;10.040;2023-09-18T13:07:19;6.25;;;2.30;;
74042;SDS011;62384;53.600;10.040;2023-09-18T13:10:00;8.48;;;2.72;;
74042;SDS011;62384;53.600;10.040;2023-09-18T13:12:41;8.70;;;2.08;;
74042;SDS011;62384;53.600;10.040;2023-09-18T13:15:11;2.53;;;1.67;;
74042;SDS011;62384;53.600;10.040;2023-09-18T13:17:44;4.85;;;1.92;;
74042;SDS011;62384;53.600;10.040;2023-09-18T13:20:14;5.03;;;2.60;;
74042;SDS011;62384;53.600;10.040;2023-09-18T13:22:41;4.32;;;2.13;;
74042;SDS011;62384;53.600;10.040;2023-09-18T13:25:08;4.60;;;1.63;;
74042;SDS011;62384;53.600;10.040;2023-09-18T13:27:34;3.70;;;1.83;;
74042;SDS011;62384;53.600;10.040;2023-09-18T13:29:59;5.65;;;1.73;;
74042;SDS011;62384;53.600;10.040;2023-09-18T13:34:57;4.72;;;2.25;;
74042;SDS011;62384;53.600;10.040;2023-09-18T13:37:22;3.72;;;1.60;;
74042;SDS011;62384;53.600;10.040;2023-09-18T13:39:47;4.22;;;1.80;;
74042;SDS011;62384;53.600;10.040;2023-09-18T13:42:13;3.78;;;2.10;;
74042;SDS011;62384;53.600;10.040;2023-09-18T13:44:38;10.18;;;1.90;;
74042;SDS011;62384;53.600;10.040;2023-09-18T13:47:04;10.05;;;1.70;;
74042;SDS011;62384;53.600;10.040;2023-09-18T13:49:29;5.13;;;2.08;;
74042;SDS011;62384;53.600;10.040;2023-09-18T13:51:54;6.43;;;1.80;;
74042;SDS011;62384;53.600;10.040;2023-09-18T13:54:21;7.45;;;2.42;;
74042;SDS011;62384;53.600;10.040;2023-09-18T13:56:46;3.13;;;1.80;;
74042;SDS011;62384;53.600;10.040;2023-09-18T13:59:12;6.22;;;2.15;;
74042;SDS011;62384;53.600;10.040;2023-09-18T14:01:41;7.32;;;2.00;;
74042;SDS011;62384;53.600;10.040;2023-09-18T14:04:06;6.50;;;1.95;;
74042;SDS011;62384;53.600;10.040;2023-09-18T14:06:34;4.07;;;1.73;;
74042;SDS011;62384;53.600;10.040;2023-09-18T14:11:36;4.60;;;2.33;;
74042;SDS011;62384;53.600;10.040;2023-09-18T14:14:03;3.70;;;2.33;;
74042;SDS011;62384;53.600;10.040;2023-09-18T14:16:28;5.78;;;2.40;;
74042;SDS011;62384;53.600;10.040;2023-09-18T14:18:58;3.30;;;2.53;;
74042;SDS011;62384;53.600;10.040;2023-09-18T14:21:23;4.13;;;2.47;;
74042;SDS011;62384;53.600;10.040;2023-09-18T14:23:51;6.80;;;2.20;;
74042;SDS011;62384;53.600;10.040;2023-09-18T14:26:17;4.88;;;2.55;;
74042;SDS011;62384;53.600;10.040;2023-09-18T14:28:42;7.55;;;2.33;;
74042;SDS011;62384;53.600;10.040;2023-09-18T14:31:09;4.78;;;2.67;;
74042;SDS011;62384;53.600;10.040;2023-09-18T14:33:36;5.65;;;2.15;;
74042;SDS011;62384;53.600;10.040;2023-09-18T14:36:02;4.10;;;1.80;;
74042;SDS011;62384;53.600;10.040;2023-09-18T14:38:29;6.82;;;1.90;;
74042;SDS011;62384;53.600;10.040;2023-09-18T14:40:54;6.07;;;1.92;;
74042;SDS011;62384;53.600;10.040;2023-09-18T14:43:41;6.80;;;2.15;;
74042;SDS011;62384;53.600;10.040;2023-09-18T14:46:09;3.15;;;1.95;;
74042;SDS011;62384;53.600;10.040;2023-09-18T14:48:34;5.63;;;1.88;;
74042;SDS011;62384;53.600;10.040;2023-09-18T14:50:59;5.45;;;2.28;;
74042;SDS011;62384;53.600;10.040;2023-09-18T14:53:25;4.50;;;2.13;;
74042;SDS011;62384;53.600;10.040;2023-09-18T14:55:51;4.22;;;2.03;;
74042;SDS011;62384;53.600;10.040;2023-09-18T14:58:16;4.10;;;2.30;;
74042;SDS011;62384;53.600;10.040;2023-09-18T15:00:43;5.70;;;2.08;;
74042;SDS011;62384;53.600;10.040;2023-09-18T15:03:09;7.45;;;2.17;;
74042;SDS011;62384;53.600;10.040;2023-09-18T15:05:34;5.60;;;2.30;;
74042;SDS011;62384;53.600;10.040;2023-09-18T15:07:59;3.65;;;2.22;;
74042;SDS011;62384;53.600;10.040;2023-09-18T15:10:27;8.98;;;2.83;;